sensor_id;sensor_type;location;lat;lon;timestamp;pressure;altitude;pressure_sealevel;temperature
53412;BMP280;39307;52.870;13.660;2023-04-24T00:01:51;99825.03;;;9.58
53412;BMP280;39307;52.870;13.660;2023-04-24T00:04:18;99826.00;;;9.57
53412;BMP280;39307;52.870;13.660;2023-04-24T00:06:44;99825.44;;;9.62
53412;BMP280;39307;52.870;13.660;2023-04-24T00:09:10;99818.81;;;9.78
53412;BMP280;39307;52.870;13.660;2023-04-24T00:11:36;99818.66;;;9.93
53412;BMP280;39307;52.870;13.660;2023-04-24T00:14:03;99802.19;;;9.92
53412;BMP280;39307;52.870;13.660;2023-04-24T00:16:29;99801.38;;;10.05
53412;BMP280;39307;52.870;13.660;2023-04-24T00:18:55;99793.34;;;9.93
53412;BMP280;39307;52.870;13.660;2023-04-24T00:21:21;99792.31;;;9.88
53412;BMP280;39307;52.870;13.660;2023-04-24T00:23:48;99784.84;;;9.85
53412;BMP280;39307;52.870;13.660;2023-04-24T00:26:14;99777.63;;;9.80
53412;BMP280;39307;52.870;13.660;2023-04-24T00:28:40;99776.44;;;9.89
53412;BMP280;39307;52.870;13.660;2023-04-24T00:31:06;99770.97;;;9.84
53412;BMP280;39307;52.870;13.660;2023-04-24T00:33:32;99766.78;;;9.96
53412;BMP280;39307;52.870;13.660;2023-04-24T00:35:59;99760.53;;;9.97
53412;BMP280;39307;52.870;13.660;2023-04-24T00:38:25;99764.16;;;9.77
53412;BMP280;39307;52.870;13.660;2023-04-24T00:40:51;99766.53;;;9.78
53412;BMP280;39307;52.870;13.660;2023-04-24T00:43:17;99753.06;;;9.75
53412;BMP280;39307;52.870;13.660;2023-04-24T00:45:44;99749.09;;;9.92
53412;BMP280;39307;52.870;13.660;2023-04-24T00:48:10;99743.25;;;9.90
53412;BMP280;39307;52.870;13.660;2023-04-24T00:50:38;99739.06;;;9.89
53412;BMP280;39307;52.870;13.660;2023-04-24T00:53:04;99735.81;;;10.00
53412;BMP280;39307;52.870;13.660;2023-04-24T00:55:30;99741.22;;;9.79
53412;BMP280;39307;52.870;13.660;2023-04-24T00:57:56;99729.56;;;9.69
53412;BMP280;39307;52.870;13.660;2023-04-24T01:00:23;99731.94;;;9.64
53412;BMP280;39307;52.870;13.660;2023-04-24T01:02:50;99727.34;;;9.59
53412;BMP280;39307;52.870;13.660;2023-04-24T01:05:16;99720.13;;;9.68
53412;BMP280;39307;52.870;13.660;2023-04-24T01:07:45;99723.31;;;9.63
53412;BMP280;39307;52.870;13.660;2023-04-24T01:10:11;99723.13;;;9.65
53412;BMP280;39307;52.870;13.660;2023-04-24T01:12:38;99729.75;;;9.61
53412;BMP280;39307;52.870;13.660;2023-04-24T01:15:05;99719.28;;;9.61
53412;BMP280;39307;52.870;13.660;2023-04-24T01:17:32;99722.91;;;9.60
53412;BMP280;39307;52.870;13.660;2023-04-24T01:20:02;99720.50;;;9.65
53412;BMP280;39307;52.870;13.660;2023-04-24T01:22:28;99719.31;;;9.74
53412;BMP280;39307;52.870;13.660;2023-04-24T01:24:54;99712.88;;;9.63
53412;BMP280;39307;52.870;13.660;2023-04-24T01:27:21;99712.69;;;9.65
53412;BMP280;39307;52.870;13.660;2023-04-24T01:29:47;99714.28;;;9.72
53412;BMP280;39307;52.870;13.660;2023-04-24T01:32:13;99711.25;;;9.81
53412;BMP280;39307;52.870;13.660;2023-04-24T01:34:40;99707.25;;;9.85
53412;BMP280;39307;52.870;13.660;2023-04-24T01:37:06;99704.81;;;9.84
53412;BMP280;39307;52.870;13.660;2023-04-24T01:39:33;99705.63;;;9.97
53412;BMP280;39307;52.870;13.660;2023-04-24T01:41:59;99709.47;;;10.14
53412;BMP280;39307;52.870;13.660;2023-04-24T01:44:26;99706.06;;;9.94
53412;BMP280;39307;52.870;13.660;2023-04-24T01:46:52;99707.47;;;9.90
53412;BMP280;39307;52.870;13.660;2023-04-24T01:49:19;99702.03;;;9.98
53412;BMP280;39307;52.870;13.660;2023-04-24T01:51:45;99697.81;;;9.97
53412;BMP280;39307;52.870;13.660;2023-04-24T01:54:12;99694.78;;;9.94
53412;BMP280;39307;52.870;13.660;2023-04-24T01:56:42;99690.56;;;9.99
53412;BMP280;39307;52.870;13.660;2023-04-24T01:59:12;99684.50;;;10.11
53412;BMP280;39307;52.870;13.660;2023-04-24T02:01:38;99679.72;;;10.02
53412;BMP280;39307;52.870;13.660;2023-04-24T02:04:05;99686.75;;;9.95
53412;BMP280;39307;52.870;13.660;2023-04-24T02:06:32;99706.66;;;9.90
53412;BMP280;39307;52.870;13.660;2023-04-24T02:08:59;99688.75;;;10.06
53412;BMP280;39307;52.870;13.660;2023-04-24T02:11:25;99679.09;;;10.00
53412;BMP280;39307;52.870;13.660;2023-04-24T02:13:52;99687.16;;;9.99
53412;BMP280;39307;52.870;13.660;2023-04-24T02:16:18;99682.53;;;10.07
53412;BMP280;39307;52.870;13.660;2023-04-24T02:18:44;99681.13;;;10.05
53412;BMP280;39307;52.870;13.660;2023-04-24T02:21:10;99675.88;;;10.11
53412;BMP280;39307;52.870;13.660;2023-04-24T02:23:37;99668.81;;;10.11
53412;BMP280;39307;52.870;13.660;2023-04-24T02:26:03;99658.50;;;10.36
53412;BMP280;39307;52.870;13.660;2023-04-24T02:28:29;99658.31;;;10.31
53412;BMP280;39307;52.870;13.660;2023-04-24T02:30:55;99658.53;;;10.23
53412;BMP280;39307;52.870;13.660;2023-04-24T02:33:21;99642.06;;;10.22
53412;BMP280;39307;52.870;13.660;2023-04-24T02:35:48;99645.09;;;10.19
53412;BMP280;39307;52.870;13.660;2023-04-24T02:38:14;99651.94;;;10.08
53412;BMP280;39307;52.870;13.660;2023-04-24T02:40:40;99658.19;;;10.07
53412;BMP280;39307;52.870;13.660;2023-04-24T02:43:06;99657.56;;;10.11
53412;BMP280;39307;52.870;13.660;2023-04-24T02:45:32;99655.38;;;10.08
53412;BMP280;39307;52.870;13.660;2023-04-24T02:47:59;99642.66;;;10.18
53412;BMP280;39307;52.870;13.660;2023-04-24T02:50:25;99642.06;;;10.16
53412;BMP280;39307;52.870;13.660;2023-04-24T02:52:51;99651.72;;;10.15
53412;BMP280;39307;52.870;13.660;2023-04-24T02:55:17;99636.44;;;10.12
53412;BMP280;39307;52.870;13.660;2023-04-24T02:57:43;99632.81;;;10.13
53412;BMP280;39307;52.870;13.660;2023-04-24T03:00:10;99638.84;;;10.14
53412;BMP280;39307;52.870;13.660;2023-04-24T03:02:36;99637.25;;;10.13
53412;BMP280;39307;52.870;13.660;2023-04-24T03:05:03;99630.97;;;10.27
53412;BMP280;39307;52.870;13.660;2023-04-24T03:07:29;99635.19;;;10.34
53412;BMP280;39307;52.870;13.660;2023-04-24T03:09:55;99638.41;;;10.23
53412;BMP280;39307;52.870;13.660;2023-04-24T03:12:21;99643.25;;;10.20
53412;BMP280;39307;52.870;13.660;2023-04-24T03:14:47;99642.44;;;10.26
53412;BMP280;39307;52.870;13.660;2023-04-24T03:17:14;99632.19;;;10.18
53412;BMP280;39307;52.870;13.660;2023-04-24T03:19:40;99639.63;;;10.21
53412;BMP280;39307;52.870;13.660;2023-04-24T03:22:06;99628.97;;;10.29
53412;BMP280;39307;52.870;13.660;2023-04-24T03:24:33;99639.25;;;10.17
53412;BMP280;39307;52.870;13.660;2023-04-24T03:26:59;99635.03;;;10.16
53412;BMP280;39307;52.870;13.660;2023-04-24T03:29:25;99636.44;;;10.12
53412;BMP280;39307;52.870;13.660;2023-04-24T03:31:51;99628.41;;;10.14
53412;BMP280;39307;52.870;13.660;2023-04-24T03:34:17;99638.25;;;10.06
53412;BMP280;39307;52.870;13.660;2023-04-24T03:36:43;99638.25;;;10.06
53412;BMP280;39307;52.870;13.660;2023-04-24T03:39:10;99636.66;;;10.05
53412;BMP280;39307;52.870;13.660;2023-04-24T03:41:36;99642.50;;;10.07
53412;BMP280;39307;52.870;13.660;2023-04-24T03:44:02;99638.88;;;10.08
53412;BMP280;39307;52.870;13.660;2023-04-24T03:46:29;99636.84;;;10.03
53412;BMP280;39307;52.870;13.660;2023-04-24T03:48:55;99652.34;;;10.05
53412;BMP280;39307;52.870;13.660;2023-04-24T03:51:21;99649.91;;;10.09
53412;BMP280;39307;52.870;13.660;2023-04-24T03:53:48;99636.38;;;10.32
53412;BMP280;39307;52.870;13.660;2023-04-24T03:56:14;99637.66;;;10.16
53412;BMP280;39307;52.870;13.660;2023-04-24T03:58:41;99648.13;;;10.10
53412;BMP280;39307;52.870;13.660;2023-04-24T04:01:07;99649.72;;;10.11
53412;BMP280;39307;52.870;13.660;2023-04-24T04:03:33;99650.13;;;10.08
53412;BMP280;39307;52.870;13.660;2023-04-24T04:05:59;99647.72;;;10.13
53412;BMP280;39307;52.870;13.660;2023-04-24T04:08:26;99648.13;;;10.10
53412;BMP280;39307;52.870;13.660;2023-04-24T04:10:52;99638.19;;;10.25
53412;BMP280;39307;52.870;13.660;2023-04-24T04:13:18;99630.75;;;10.35
53412;BMP280;39307;52.870;13.660;2023-04-24T04:15:44;99644.84;;;10.27
53412;BMP280;39307;52.870;13.660;2023-04-24T04:18:11;99638.84;;;10.20
53412;BMP280;39307;52.870;13.660;2023-04-24T04:20:37;99653.53;;;10.15
53412;BMP280;39307;52.870;13.660;2023-04-24T04:23:03;99659.97;;;10.12
53412;BMP280;39307;52.870;13.660;2023-04-24T04:25:29;99647.09;;;10.11
53412;BMP280;39307;52.870;13.660;2023-04-24T04:27:56;99650.72;;;10.16
53412;BMP280;39307;52.870;13.660;2023-04-24T04:30:22;99642.25;;;10.21
53412;BMP280;39307;52.870;13.660;2023-04-24T04:32:49;99625.97;;;10.19
53412;BMP280;39307;52.870;13.660;2023-04-24T04:35:15;99626.69;;;10.38
53412;BMP280;39307;52.870;13.660;2023-04-24T04:37:41;99642.25;;;10.21
53412;BMP280;39307;52.870;13.660;2023-04-24T04:40:08;99638.84;;;10.14
53412;BMP280;39307;52.870;13.660;2023-04-24T04:42:34;99635.22;;;10.15
53412;BMP280;39307;52.870;13.660;2023-04-24T04:45:00;99627.75;;;10.25
53412;BMP280;39307;52.870;13.660;2023-04-24T04:47:27;99641.44;;;10.20
53412;BMP280;39307;52.870;13.660;2023-04-24T04:49:53;99632.16;;;10.31
53412;BMP280;39307;52.870;13.660;2023-04-24T04:52:19;99638.66;;;10.22
53412;BMP280;39307;52.870;13.660;2023-04-24T04:54:46;99639.59;;;10.27
53412;BMP280;39307;52.870;13.660;2023-04-24T04:57:12;99624.31;;;10.24
53412;BMP280;39307;52.870;13.660;2023-04-24T04:59:38;99627.16;;;10.23
53412;BMP280;39307;52.870;13.660;2023-04-24T05:02:04;99642.84;;;10.23
53412;BMP280;39307;52.870;13.660;2023-04-24T05:04:30;99642.84;;;10.23
53412;BMP280;39307;52.870;13.660;2023-04-24T05:06:57;99634.00;;;10.24
53412;BMP280;39307;52.870;13.660;2023-04-24T05:09:23;99638.00;;;10.26
53412;BMP280;39307;52.870;13.660;2023-04-24T05:11:49;99645.63;;;10.28
53412;BMP280;39307;52.870;13.660;2023-04-24T05:14:15;99644.66;;;10.29
53412;BMP280;39307;52.870;13.660;2023-04-24T05:16:41;99644.22;;;10.32
53412;BMP280;39307;52.870;13.660;2023-04-24T05:19:08;99647.25;;;10.35
53412;BMP280;39307;52.870;13.660;2023-04-24T05:21:34;99645.00;;;10.38
53412;BMP280;39307;52.870;13.660;2023-04-24T05:24:00;99655.66;;;10.43
53412;BMP280;39307;52.870;13.660;2023-04-24T05:26:26;99657.47;;;10.49
53412;BMP280;39307;52.870;13.660;2023-04-24T05:28:52;99658.03;;;10.51
53412;BMP280;39307;52.870;13.660;2023-04-24T05:31:18;99655.81;;;10.55
53412;BMP280;39307;52.870;13.660;2023-04-24T05:33:44;99653.78;;;10.57
53412;BMP280;39307;52.870;13.660;2023-04-24T05:36:11;99652.16;;;10.62
53412;BMP280;39307;52.870;13.660;2023-04-24T05:38:37;99659.38;;;10.66
53412;BMP280;39307;52.870;13.660;2023-04-24T05:41:03;99659.56;;;10.71
53412;BMP280;39307;52.870;13.660;2023-04-24T05:43:29;99663.19;;;10.77
53412;BMP280;39307;52.870;13.660;2023-04-24T05:45:55;99663.94;;;10.84
53412;BMP280;39307;52.870;13.660;2023-04-24T05:48:22;99649.78;;;10.91
53412;BMP280;39307;52.870;13.660;2023-04-24T05:50:48;99648.38;;;10.95
53412;BMP280;39307;52.870;13.660;2023-04-24T05:53:14;99654.41;;;10.95
53412;BMP280;39307;52.870;13.660;2023-04-24T05:55:40;99655.22;;;10.96
53412;BMP280;39307;52.870;13.660;2023-04-24T05:58:06;99653.19;;;10.98
53412;BMP280;39307;52.870;13.660;2023-04-24T06:00:33;99649.94;;;11.02
53412;BMP280;39307;52.870;13.660;2023-04-24T06:03:00;99662.00;;;11.10
53412;BMP280;39307;52.870;13.660;2023-04-24T06:05:26;99653.06;;;11.17
53412;BMP280;39307;52.870;13.660;2023-04-24T06:07:52;99656.44;;;11.24
53412;BMP280;39307;52.870;13.660;2023-04-24T06:10:19;99658.81;;;11.32
53412;BMP280;39307;52.870;13.660;2023-04-24T06:12:45;99655.75;;;11.35
53412;BMP280;39307;52.870;13.660;2023-04-24T06:15:11;99658.56;;;11.40
53412;BMP280;39307;52.870;13.660;2023-04-24T06:17:37;99655.91;;;11.46
53412;BMP280;39307;52.870;13.660;2023-04-24T06:20:04;99650.63;;;11.53
53412;BMP280;39307;52.870;13.660;2023-04-24T06:22:30;99650.94;;;11.62
53412;BMP280;39307;52.870;13.660;2023-04-24T06:24:57;99657.16;;;11.68
53412;BMP280;39307;52.870;13.660;2023-04-24T06:27:23;99657.28;;;11.73
53412;BMP280;39307;52.870;13.660;2023-04-24T06:29:49;99653.81;;;11.79
53412;BMP280;39307;52.870;13.660;2023-04-24T06:32:15;99656.97;;;11.87
53412;BMP280;39307;52.870;13.660;2023-04-24T06:34:41;99658.56;;;11.88
53412;BMP280;39307;52.870;13.660;2023-04-24T06:37:08;99666.59;;;11.93
53412;BMP280;39307;52.870;13.660;2023-04-24T06:39:34;99661.88;;;12.01
53412;BMP280;39307;52.870;13.660;2023-04-24T06:42:00;99665.66;;;12.05
53412;BMP280;39307;52.870;13.660;2023-04-24T06:44:26;99658.53;;;12.12
53412;BMP280;39307;52.870;13.660;2023-04-24T06:46:53;99662.53;;;12.14
53412;BMP280;39307;52.870;13.660;2023-04-24T06:49:19;99660.06;;;12.19
53412;BMP280;39307;52.870;13.660;2023-04-24T06:51:45;99660.44;;;12.23
53412;BMP280;39307;52.870;13.660;2023-04-24T06:54:11;99651.03;;;12.33
53412;BMP280;39307;52.870;13.660;2023-04-24T06:56:37;99642.00;;;12.29
53412;BMP280;39307;52.870;13.660;2023-04-24T06:59:04;99649.78;;;12.36
53412;BMP280;39307;52.870;13.660;2023-04-24T07:01:30;99646.53;;;12.40
53412;BMP280;39307;52.870;13.660;2023-04-24T07:03:56;99650.00;;;12.52
53412;BMP280;39307;52.870;13.660;2023-04-24T07:06:22;99646.19;;;12.66
53412;BMP280;39307;52.870;13.660;2023-04-24T07:08:49;99647.94;;;12.71
53412;BMP280;39307;52.870;13.660;2023-04-24T07:11:15;99646.22;;;12.83
53412;BMP280;39307;52.870;13.660;2023-04-24T07:13:41;99643.16;;;12.98
53412;BMP280;39307;52.870;13.660;2023-04-24T07:16:08;99645.84;;;13.09
53412;BMP280;39307;52.870;13.660;2023-04-24T07:18:34;99646.00;;;13.25
53412;BMP280;39307;52.870;13.660;2023-04-24T07:21:01;99644.44;;;13.35
53412;BMP280;39307;52.870;13.660;2023-04-24T07:23:28;99643.75;;;13.51
53412;BMP280;39307;52.870;13.660;2023-04-24T07:25:54;99628.81;;;13.63
53412;BMP280;39307;52.870;13.660;2023-04-24T07:28:21;99634.19;;;13.90
53412;BMP280;39307;52.870;13.660;2023-04-24T07:30:47;99636.72;;;14.19
53412;BMP280;39307;52.870;13.660;2023-04-24T07:33:13;99638.16;;;14.49
53412;BMP280;39307;52.870;13.660;2023-04-24T07:35:39;99635.91;;;14.69
53412;BMP280;39307;52.870;13.660;2023-04-24T07:38:06;99643.81;;;14.97
53412;BMP280;39307;52.870;13.660;2023-04-24T07:40:32;99632.97;;;15.21
53412;BMP280;39307;52.870;13.660;2023-04-24T07:42:59;99638.19;;;15.32
53412;BMP280;39307;52.870;13.660;2023-04-24T07:45:25;99643.38;;;15.43
53412;BMP280;39307;52.870;13.660;2023-04-24T07:47:51;99644.09;;;15.39
53412;BMP280;39307;52.870;13.660;2023-04-24T07:50:17;99637.03;;;15.28
53412;BMP280;39307;52.870;13.660;2023-04-24T07:52:43;99643.34;;;15.27
53412;BMP280;39307;52.870;13.660;2023-04-24T07:55:10;99643.44;;;15.48
53412;BMP280;39307;52.870;13.660;2023-04-24T07:57:36;99643.47;;;15.81
53412;BMP280;39307;52.870;13.660;2023-04-24T08:00:03;99641.31;;;16.31
53412;BMP280;39307;52.870;13.660;2023-04-24T08:02:30;99644.25;;;16.98
53412;BMP280;39307;52.870;13.660;2023-04-24T08:04:56;99628.09;;;17.52
53412;BMP280;39307;52.870;13.660;2023-04-24T08:07:23;99633.13;;;18.20
53412;BMP280;39307;52.870;13.660;2023-04-24T08:09:49;99630.63;;;18.54
53412;BMP280;39307;52.870;13.660;2023-04-24T08:12:16;99629.97;;;18.88
53412;BMP280;39307;52.870;13.660;2023-04-24T08:14:42;99622.16;;;19.38
53412;BMP280;39307;52.870;13.660;2023-04-24T08:17:08;99617.13;;;19.80
53412;BMP280;39307;52.870;13.660;2023-04-24T08:19:34;99607.72;;;20.22
53412;BMP280;39307;52.870;13.660;2023-04-24T08:22:00;99606.88;;;20.41
53412;BMP280;39307;52.870;13.660;2023-04-24T08:24:27;99611.50;;;20.83
53412;BMP280;39307;52.870;13.660;2023-04-24T08:26:53;99616.75;;;20.88
53412;BMP280;39307;52.870;13.660;2023-04-24T08:29:19;99612.59;;;20.78
53412;BMP280;39307;52.870;13.660;2023-04-24T08:31:47;99610.28;;;20.56
53412;BMP280;39307;52.870;13.660;2023-04-24T08:34:13;99613.47;;;21.06
53412;BMP280;39307;52.870;13.660;2023-04-24T08:36:39;99600.94;;;21.49
53412;BMP280;39307;52.870;13.660;2023-04-24T08:39:06;99606.09;;;21.69
53412;BMP280;39307;52.870;13.660;2023-04-24T08:41:33;99611.94;;;21.99
53412;BMP280;39307;52.870;13.660;2023-04-24T08:44:02;99607.13;;;22.29
53412;BMP280;39307;52.870;13.660;2023-04-24T08:46:30;99601.78;;;22.01
53412;BMP280;39307;52.870;13.660;2023-04-24T08:48:57;99611.75;;;21.63
53412;BMP280;39307;52.870;13.660;2023-04-24T08:51:26;99618.53;;;21.08
53412;BMP280;39307;52.870;13.660;2023-04-24T08:53:53;99618.47;;;20.70
53412;BMP280;39307;52.870;13.660;2023-04-24T08:56:21;99617.66;;;20.74
53412;BMP280;39307;52.870;13.660;2023-04-24T08:58:51;99615.84;;;20.60
53412;BMP280;39307;52.870;13.660;2023-04-24T09:01:19;99616.63;;;20.65
53412;BMP280;39307;52.870;13.660;2023-04-24T09:03:49;99600.91;;;21.16
53412;BMP280;39307;52.870;13.660;2023-04-24T09:06:18;99600.34;;;21.19
53412;BMP280;39307;52.870;13.660;2023-04-24T09:08:45;99602.25;;;21.14
53412;BMP280;39307;52.870;13.660;2023-04-24T09:11:12;99614.63;;;20.95
53412;BMP280;39307;52.870;13.660;2023-04-24T09:13:38;99612.59;;;20.68
53412;BMP280;39307;52.870;13.660;2023-04-24T09:16:05;99608.19;;;20.54
53412;BMP280;39307;52.870;13.660;2023-04-24T09:18:31;99616.28;;;20.77
53412;BMP280;39307;52.870;13.660;2023-04-24T09:21:02;99610.22;;;21.14
53412;BMP280;39307;52.870;13.660;2023-04-24T09:23:30;99616.41;;;21.05
53412;BMP280;39307;52.870;13.660;2023-04-24T09:25:58;99608.59;;;21.18
53412;BMP280;39307;52.870;13.660;2023-04-24T09:28:38;99612.19;;;20.99
53412;BMP280;39307;52.870;13.660;2023-04-24T09:31:17;99604.69;;;20.63
53412;BMP280;39307;52.870;13.660;2023-04-24T09:34:03;99614.00;;;20.46
53412;BMP280;39307;52.870;13.660;2023-04-24T09:36:31;99612.22;;;20.22
53412;BMP280;39307;52.870;13.660;2023-04-24T09:39:01;99615.97;;;20.25
53412;BMP280;39307;52.870;13.660;2023-04-24T09:41:28;99616.75;;;20.16
53412;BMP280;39307;52.870;13.660;2023-04-24T09:43:55;99611.97;;;20.18
53412;BMP280;39307;52.870;13.660;2023-04-24T09:46:28;99618.88;;;20.19
53412;BMP280;39307;52.870;13.660;2023-04-24T09:48:55;99617.03;;;20.15
53412;BMP280;39307;52.870;13.660;2023-04-24T09:51:34;99624.00;;;19.91
53412;BMP280;39307;52.870;13.660;2023-04-24T09:54:00;99620.28;;;19.63
53412;BMP280;39307;52.870;13.660;2023-04-24T09:56:27;99620.53;;;19.51
53412;BMP280;39307;52.870;13.660;2023-04-24T09:58:53;99619.75;;;19.36
53412;BMP280;39307;52.870;13.660;2023-04-24T10:01:32;99619.75;;;19.26
53412;BMP280;39307;52.870;13.660;2023-04-24T10:03:58;99620.75;;;19.06
53412;BMP280;39307;52.870;13.660;2023-04-24T10:06:34;99622.88;;;19.08
53412;BMP280;39307;52.870;13.660;2023-04-24T10:09:01;99614.66;;;19.10
53412;BMP280;39307;52.870;13.660;2023-04-24T10:11:28;99629.78;;;19.00
53412;BMP280;39307;52.870;13.660;2023-04-24T10:13:54;99624.97;;;18.92
53412;BMP280;39307;52.870;13.660;2023-04-24T10:16:21;99622.88;;;18.99
53412;BMP280;39307;52.870;13.660;2023-04-24T10:18:48;99629.75;;;18.90
53412;BMP280;39307;52.870;13.660;2023-04-24T10:21:17;99624.91;;;18.77
53412;BMP280;39307;52.870;13.660;2023-04-24T10:23:44;99625.41;;;18.69
53412;BMP280;39307;52.870;13.660;2023-04-24T10:26:12;99621.72;;;18.75
53412;BMP280;39307;52.870;13.660;2023-04-24T10:28:39;99618.66;;;19.08
53412;BMP280;39307;52.870;13.660;2023-04-24T10:31:07;99624.78;;;19.33
53412;BMP280;39307;52.870;13.660;2023-04-24T10:33:35;99615.22;;;19.46
53412;BMP280;39307;52.870;13.660;2023-04-24T10:36:02;99620.53;;;19.51
53412;BMP280;39307;52.870;13.660;2023-04-24T10:38:29;99616.56;;;19.54
53412;BMP280;39307;52.870;13.660;2023-04-24T10:41:12;99614.97;;;19.48
53412;BMP280;39307;52.870;13.660;2023-04-24T10:43:40;99614.44;;;19.51
53412;BMP280;39307;52.870;13.660;2023-04-24T10:46:07;99613.38;;;19.42
53412;BMP280;39307;52.870;13.660;2023-04-24T10:48:34;99612.84;;;19.50
53412;BMP280;39307;52.870;13.660;2023-04-24T10:51:01;99614.97;;;19.38
53412;BMP280;39307;52.870;13.660;2023-04-24T10:53:29;99615.22;;;19.27
53412;BMP280;39307;52.870;13.660;2023-04-24T10:56:03;99613.84;;;19.00
53412;BMP280;39307;52.870;13.660;2023-04-24T10:58:41;99628.63;;;18.81
53412;BMP280;39307;52.870;13.660;2023-04-24T11:01:07;99623.84;;;18.78
53412;BMP280;39307;52.870;13.660;2023-04-24T11:03:34;99619.06;;;18.75
53412;BMP280;39307;52.870;13.660;2023-04-24T11:06:08;99627.50;;;18.62
53412;BMP280;39307;52.870;13.660;2023-04-24T11:08:45;99629.78;;;18.39
53412;BMP280;39307;52.870;13.660;2023-04-24T11:11:14;99616.56;;;18.44
53412;BMP280;39307;52.870;13.660;2023-04-24T11:16:28;99615.84;;;18.63
53412;BMP280;39307;52.870;13.660;2023-04-24T11:24:33;99609.88;;;18.32
53412;BMP280;39307;52.870;13.660;2023-04-24T11:29:40;99616.69;;;18.13
53412;BMP280;39307;52.870;13.660;2023-04-24T11:35:05;99615.72;;;17.93
53412;BMP280;39307;52.870;13.660;2023-04-24T11:37:37;99617.03;;;17.91
53412;BMP280;39307;52.870;13.660;2023-04-24T11:40:05;99622.00;;;17.82
53412;BMP280;39307;52.870;13.660;2023-04-24T11:42:39;99627.38;;;17.56
53412;BMP280;39307;52.870;13.660;2023-04-24T11:45:17;99628.97;;;17.57
53412;BMP280;39307;52.870;13.660;2023-04-24T11:47:44;99627.31;;;17.51
53412;BMP280;39307;52.870;13.660;2023-04-24T11:50:15;99627.81;;;17.48
53412;BMP280;39307;52.870;13.660;2023-04-24T11:52:44;99638.75;;;17.26
53412;BMP280;39307;52.870;13.660;2023-04-24T11:57:49;99627.31;;;17.51
53412;BMP280;39307;52.870;13.660;2023-04-24T12:02:45;99625.53;;;17.57
53412;BMP280;39307;52.870;13.660;2023-04-24T12:05:26;99620.22;;;17.57
53412;BMP280;39307;52.870;13.660;2023-04-24T12:07:53;99622.59;;;17.89
53412;BMP280;39307;52.870;13.660;2023-04-24T12:10:21;99618.50;;;18.13
53412;BMP280;39307;52.870;13.660;2023-04-24T12:12:48;99602.50;;;18.39
53412;BMP280;39307;52.870;13.660;2023-04-24T12:15:17;99603.13;;;18.65
53412;BMP280;39307;52.870;13.660;2023-04-24T12:17:43;99597.13;;;18.89
53412;BMP280;39307;52.870;13.660;2023-04-24T12:20:10;99589.19;;;19.09
53412;BMP280;39307;52.870;13.660;2023-04-24T12:22:48;99591.06;;;19.28
53412;BMP280;39307;52.870;13.660;2023-04-24T12:25:16;99585.00;;;19.23
53412;BMP280;39307;52.870;13.660;2023-04-24T12:27:44;99583.88;;;18.99
53412;BMP280;39307;52.870;13.660;2023-04-24T12:30:12;99575.84;;;18.79
53412;BMP280;39307;52.870;13.660;2023-04-24T12:32:47;99590.44;;;18.82
53412;BMP280;39307;52.870;13.660;2023-04-24T12:35:18;99599.81;;;18.34
53412;BMP280;39307;52.870;13.660;2023-04-24T12:37:45;99602.78;;;18.42
53412;BMP280;39307;52.870;13.660;2023-04-24T12:40:12;99613.59;;;18.36
53412;BMP280;39307;52.870;13.660;2023-04-24T12:42:43;99625.16;;;18.10
53412;BMP280;39307;52.870;13.660;2023-04-24T12:45:10;99622.19;;;18.07
53412;BMP280;39307;52.870;13.660;2023-04-24T12:47:36;99616.69;;;17.82
53412;BMP280;39307;52.870;13.660;2023-04-24T12:50:03;99610.03;;;17.75
53412;BMP280;39307;52.870;13.660;2023-04-24T12:52:30;99601.97;;;17.96
53412;BMP280;39307;52.870;13.660;2023-04-24T12:54:58;99598.19;;;18.28
53412;BMP280;39307;52.870;13.660;2023-04-24T12:57:26;99591.41;;;18.47
53412;BMP280;39307;52.870;13.660;2023-04-24T12:59:54;99588.50;;;18.58
53412;BMP280;39307;52.870;13.660;2023-04-24T13:02:21;99594.50;;;18.34
53412;BMP280;39307;52.870;13.660;2023-04-24T13:04:48;99596.97;;;17.99
53412;BMP280;39307;52.870;13.660;2023-04-24T13:07:14;99593.75;;;17.92
53412;BMP280;39307;52.870;13.660;2023-04-24T13:09:42;99589.59;;;18.01
53412;BMP280;39307;52.870;13.660;2023-04-24T13:12:09;99587.13;;;17.90
53412;BMP280;39307;52.870;13.660;2023-04-24T13:14:36;99591.38;;;17.96
53412;BMP280;39307;52.870;13.660;2023-04-24T13:17:03;99584.34;;;18.11
53412;BMP280;39307;52.870;13.660;2023-04-24T13:19:34;99574.31;;;18.18
53412;BMP280;39307;52.870;13.660;2023-04-24T13:22:01;99575.38;;;18.22
53412;BMP280;39307;52.870;13.660;2023-04-24T13:24:28;99572.50;;;18.23
53412;BMP280;39307;52.870;13.660;2023-04-24T13:26:54;99592.81;;;18.08
53412;BMP280;39307;52.870;13.660;2023-04-24T13:29:20;99590.41;;;18.07
53412;BMP280;39307;52.870;13.660;2023-04-24T13:31:47;99597.56;;;18.06
53412;BMP280;39307;52.870;13.660;2023-04-24T13:34:13;99603.22;;;17.84
53412;BMP280;39307;52.870;13.660;2023-04-24T13:36:40;99604.34;;;17.57
53412;BMP280;39307;52.870;13.660;2023-04-24T13:39:06;99617.97;;;17.13
53412;BMP280;39307;52.870;13.660;2023-04-24T13:41:33;99618.38;;;16.79
53412;BMP280;39307;52.870;13.660;2023-04-24T13:43:59;99621.53;;;16.55
53412;BMP280;39307;52.870;13.660;2023-04-24T13:46:26;99617.56;;;16.31
53412;BMP280;39307;52.870;13.660;2023-04-24T13:48:52;99605.44;;;16.14
53412;BMP280;39307;52.870;13.660;2023-04-24T13:51:18;99608.63;;;16.00
53412;BMP280;39307;52.870;13.660;2023-04-24T13:53:44;99617.22;;;15.90
53412;BMP280;39307;52.870;13.660;2023-04-24T13:56:11;99614.66;;;15.95
53412;BMP280;39307;52.870;13.660;2023-04-24T13:58:37;99613.47;;;15.87
53412;BMP280;39307;52.870;13.660;2023-04-24T14:01:04;99611.16;;;15.90
53412;BMP280;39307;52.870;13.660;2023-04-24T14:03:30;99602.44;;;15.89
53412;BMP280;39307;52.870;13.660;2023-04-24T14:05:56;99597.59;;;16.03
53412;BMP280;39307;52.870;13.660;2023-04-24T14:08:23;99603.66;;;16.03
53412;BMP280;39307;52.870;13.660;2023-04-24T14:10:50;99604.09;;;16.12
53412;BMP280;39307;52.870;13.660;2023-04-24T14:13:16;99599.22;;;16.25
53412;BMP280;39307;52.870;13.660;2023-04-24T14:15:43;99599.75;;;16.06
53412;BMP280;39307;52.870;13.660;2023-04-24T14:18:09;99594.78;;;16.09